createdAt,value
2018-07-21T00:00:57.059Z,16.60
2018-07-21T00:03:25.287Z,15.27
2018-07-21T00:05:53.507Z,14.83
2018-07-21T00:08:21.739Z,14.90
2018-07-21T00:10:49.967Z,14.67
2018-07-21T00:13:18.180Z,15.33
2018-07-21T00:15:46.409Z,14.03
2018-07-21T00:18:14.628Z,16.10
2018-07-21T00:20:42.856Z,14.97
2018-07-21T00:23:11.083Z,15.47
2018-07-21T00:25:39.309Z,15.63
2018-07-21T00:28:07.561Z,16.00
2018-07-21T00:30:35.774Z,15.53
2018-07-21T00:33:03.994Z,15.30
2018-07-21T00:35:32.203Z,15.87
2018-07-21T00:38:00.411Z,14.90
2018-07-21T00:40:28.801Z,15.80
2018-07-21T00:42:57.016Z,15.83
2018-07-21T00:45:25.237Z,17.40
2018-07-21T00:47:53.470Z,14.83
2018-07-21T00:50:21.721Z,14.87
2018-07-21T00:52:49.941Z,15.77
2018-07-21T00:55:18.138Z,15.17
2018-07-21T00:57:46.377Z,15.93
2018-07-21T01:00:14.604Z,15.30
2018-07-21T01:02:42.812Z,14.07
2018-07-21T01:05:11.027Z,16.60
2018-07-21T01:07:39.231Z,15.73
2018-07-21T01:10:07.787Z,16.47
2018-07-21T01:12:36.501Z,16.10
2018-07-21T01:15:05.868Z,15.40
2018-07-21T01:17:34.089Z,15.87
2018-07-21T01:20:02.356Z,16.23
2018-07-21T01:22:30.592Z,17.20
2018-07-21T01:24:58.832Z,15.93
2018-07-21T01:27:27.074Z,17.63
2018-07-21T01:29:55.294Z,16.17
2018-07-21T01:32:23.666Z,17.93
2018-07-21T01:34:51.881Z,17.17
2018-07-21T01:37:20.111Z,15.83
2018-07-21T01:39:48.339Z,15.10
2018-07-21T01:42:16.529Z,14.60
2018-07-21T01:44:44.775Z,14.77
2018-07-21T01:47:13.086Z,16.73
2018-07-21T01:49:41.386Z,18.47
2018-07-21T01:55:20.274Z,16.53
2018-07-21T01:57:48.716Z,16.70
2018-07-21T02:00:17.072Z,16.80
2018-07-21T02:02:45.456Z,17.47
2018-07-21T02:05:13.885Z,17.43
2018-07-21T02:07:42.327Z,17.73
2018-07-21T02:10:10.813Z,18.13
2018-07-21T02:12:39.233Z,19.60
2018-07-21T02:15:07.706Z,18.10
2018-07-21T02:17:36.195Z,18.13
2018-07-21T02:20:04.669Z,18.70
2018-07-21T02:22:33.035Z,16.67
2018-07-21T02:25:01.504Z,18.57
2018-07-21T02:27:29.819Z,16.97
2018-07-21T02:29:58.224Z,16.90
2018-07-21T02:32:26.591Z,17.50
2018-07-21T02:34:55.169Z,16.40
2018-07-21T02:37:23.584Z,17.50
2018-07-21T02:39:51.991Z,17.13
2018-07-21T02:42:20.359Z,18.53
2018-07-21T02:44:48.765Z,16.83
2018-07-21T02:47:17.091Z,18.50
2018-07-21T02:49:45.407Z,18.27
2018-07-21T02:52:13.657Z,18.07
2018-07-21T02:54:42.194Z,18.00
2018-07-21T02:57:10.531Z,17.97
2018-07-21T02:59:38.912Z,16.77
2018-07-21T03:02:07.240Z,17.40
2018-07-21T03:04:35.484Z,15.63
2018-07-21T03:09:38.329Z,15.67
2018-07-21T03:12:06.305Z,16.60
2018-07-21T03:14:34.563Z,16.83
2018-07-21T03:17:02.765Z,18.33
2018-07-21T03:19:30.970Z,17.07
2018-07-21T03:21:59.151Z,17.83
2018-07-21T03:24:27.361Z,17.57
2018-07-21T03:26:55.595Z,16.90
2018-07-21T03:29:23.811Z,16.33
2018-07-21T03:31:52.036Z,17.03
2018-07-21T03:34:20.281Z,16.40
2018-07-21T03:36:48.466Z,14.87
2018-07-21T03:39:16.648Z,15.50
2018-07-21T03:41:44.826Z,15.87
2018-07-21T03:44:13.020Z,15.50
2018-07-21T03:46:41.219Z,15.23
2018-07-21T03:49:09.455Z,14.90
2018-07-21T03:51:37.637Z,14.93
2018-07-21T03:54:05.856Z,14.50
2018-07-21T03:56:34.111Z,14.77
2018-07-21T03:59:02.317Z,14.20
2018-07-21T04:01:30.532Z,13.60
2018-07-21T04:03:58.740Z,12.90
2018-07-21T04:06:27.001Z,12.87
2018-07-21T04:08:55.201Z,13.30
2018-07-21T04:11:23.364Z,13.63
2018-07-21T04:13:51.582Z,12.37
2018-07-21T04:16:19.845Z,11.77
2018-07-21T04:18:48.036Z,12.50
2018-07-21T04:21:16.272Z,13.87
2018-07-21T04:23:44.522Z,14.03
2018-07-21T04:26:12.852Z,13.40
2018-07-21T04:28:41.050Z,12.90
2018-07-21T04:31:09.249Z,11.77
2018-07-21T04:33:37.514Z,12.67
2018-07-21T04:36:05.907Z,13.30
2018-07-21T04:38:34.168Z,11.33
2018-07-21T04:41:02.424Z,11.80
2018-07-21T04:43:30.734Z,12.30
2018-07-21T04:45:59.184Z,11.30
2018-07-21T04:48:27.367Z,12.27
2018-07-21T04:50:55.644Z,12.57
2018-07-21T04:53:23.948Z,11.47
2018-07-21T04:55:52.195Z,12.70
2018-07-21T04:58:20.400Z,12.00
2018-07-21T05:00:48.690Z,11.20
2018-07-21T05:03:17.494Z,12.47
2018-07-21T05:05:45.703Z,13.03
2018-07-21T05:08:13.923Z,11.33
2018-07-21T05:10:42.111Z,12.47
2018-07-21T05:13:11.514Z,11.87
2018-07-21T05:15:39.756Z,13.27
2018-07-21T05:18:08.117Z,11.47
2018-07-21T05:20:36.312Z,11.77
2018-07-21T05:23:04.562Z,12.27
2018-07-21T05:25:32.827Z,12.17
2018-07-21T05:28:01.032Z,12.07
2018-07-21T05:30:29.463Z,12.73
2018-07-21T05:32:57.684Z,12.53
2018-07-21T05:35:26.007Z,12.00
2018-07-21T05:37:54.431Z,12.90
2018-07-21T05:40:22.732Z,12.00
2018-07-21T05:42:50.963Z,11.50
2018-07-21T05:45:19.176Z,11.90
2018-07-21T05:47:47.362Z,12.00
2018-07-21T05:50:15.589Z,12.00
2018-07-21T05:52:43.783Z,12.00
2018-07-21T05:55:11.950Z,11.63
2018-07-21T05:57:40.167Z,11.17
2018-07-21T06:00:10.407Z,12.43
2018-07-21T06:02:38.654Z,10.17
2018-07-21T06:05:07.060Z,9.90
2018-07-21T06:07:35.238Z,10.30
2018-07-21T06:10:03.472Z,11.47
2018-07-21T06:12:31.656Z,11.43
2018-07-21T06:14:59.831Z,10.90
2018-07-21T06:17:28.027Z,10.50
2018-07-21T06:19:56.187Z,11.03
2018-07-21T06:22:24.398Z,11.97
2018-07-21T06:24:52.572Z,10.47
2018-07-21T06:27:20.732Z,10.60
2018-07-21T06:29:48.905Z,9.77
2018-07-21T06:32:17.058Z,9.57
2018-07-21T06:34:45.245Z,10.97
2018-07-21T06:37:13.407Z,10.43
2018-07-21T06:39:41.591Z,12.00
2018-07-21T06:42:09.777Z,11.03
2018-07-21T06:44:38.003Z,10.03
2018-07-21T06:47:06.291Z,11.60
2018-07-21T06:49:34.482Z,11.03
2018-07-21T06:52:02.660Z,10.43
2018-07-21T06:54:30.876Z,12.23
2018-07-21T06:56:59.031Z,10.37
2018-07-21T06:59:28.877Z,10.27
2018-07-21T07:01:57.167Z,13.17
2018-07-21T07:04:25.371Z,9.97
2018-07-21T07:06:53.559Z,11.30
2018-07-21T07:09:21.840Z,9.57
2018-07-21T07:11:49.992Z,8.23
2018-07-21T07:14:18.355Z,11.17
2018-07-21T07:16:46.535Z,9.90
2018-07-21T07:19:14.715Z,8.90
2018-07-21T07:21:42.887Z,8.63
2018-07-21T07:24:11.091Z,8.87
2018-07-21T07:26:39.253Z,9.53
2018-07-21T07:29:07.438Z,8.13
2018-07-21T07:31:38.089Z,11.33
2018-07-21T07:34:06.331Z,10.93
2018-07-21T07:36:34.507Z,9.23
2018-07-21T07:39:02.711Z,9.80
2018-07-21T07:41:30.882Z,9.53
2018-07-21T07:43:59.052Z,9.23
2018-07-21T07:46:27.240Z,9.67
2018-07-21T07:48:55.419Z,10.17
2018-07-21T07:51:23.614Z,11.37
2018-07-21T07:53:51.799Z,9.33
2018-07-21T07:56:19.960Z,9.47
2018-07-21T07:58:48.135Z,9.77
2018-07-21T08:01:16.433Z,9.40
2018-07-21T08:03:44.663Z,8.90
2018-07-21T08:06:12.831Z,7.90
2018-07-21T08:08:41.063Z,8.20
2018-07-21T08:11:09.347Z,8.87
2018-07-21T08:13:37.589Z,9.10
2018-07-21T08:16:05.749Z,8.07
2018-07-21T08:18:33.940Z,8.10
2018-07-21T08:21:02.132Z,8.00
2018-07-21T08:23:30.346Z,7.90
2018-07-21T08:25:58.536Z,7.70
2018-07-21T08:28:26.844Z,8.00
2018-07-21T08:30:55.008Z,6.60
2018-07-21T08:33:23.202Z,9.67
2018-07-21T08:35:51.525Z,9.80
2018-07-21T08:38:19.676Z,8.17
2018-07-21T08:40:47.983Z,9.40
2018-07-21T08:43:16.176Z,9.57
2018-07-21T08:45:44.370Z,9.77
2018-07-21T08:48:12.576Z,8.90
2018-07-21T08:50:40.716Z,8.73
2018-07-21T08:53:09.608Z,8.90
2018-07-21T08:55:38.456Z,9.77
2018-07-21T08:58:06.685Z,8.47
2018-07-21T09:00:35.250Z,8.70
2018-07-21T09:03:04.088Z,9.10
2018-07-21T09:05:32.847Z,8.77
2018-07-21T09:08:01.243Z,8.70
2018-07-21T09:10:29.880Z,7.90
2018-07-21T09:12:58.061Z,7.90
2018-07-21T09:15:26.219Z,8.43
2018-07-21T09:17:54.627Z,8.60
2018-07-21T09:20:22.882Z,7.40
2018-07-21T09:22:51.807Z,8.20
2018-07-21T09:25:19.998Z,8.67
2018-07-21T09:27:48.204Z,7.13
2018-07-21T09:30:17.855Z,7.13
2018-07-21T09:32:46.232Z,7.50
2018-07-21T09:35:14.455Z,7.53
2018-07-21T09:37:42.631Z,7.10
2018-07-21T09:40:10.811Z,7.23
2018-07-21T09:42:39.375Z,6.57
2018-07-21T09:45:07.530Z,7.03
2018-07-21T09:47:35.759Z,6.30
2018-07-21T09:50:04.365Z,6.53
2018-07-21T09:52:32.517Z,6.43
2018-07-21T09:55:00.950Z,6.13
2018-07-21T09:57:29.136Z,7.10
2018-07-21T09:59:57.330Z,6.17
2018-07-21T10:02:25.742Z,8.17
2018-07-21T10:04:54.267Z,6.50
2018-07-21T10:07:22.430Z,6.47
2018-07-21T10:09:50.583Z,6.67
2018-07-21T10:12:18.820Z,6.50
2018-07-21T10:14:47.296Z,6.30
2018-07-21T10:17:15.758Z,7.30
2018-07-21T10:19:43.979Z,7.03
2018-07-21T10:22:12.208Z,7.10
2018-07-21T10:24:45.756Z,7.00
2018-07-21T10:27:15.078Z,7.50
2018-07-21T10:29:43.318Z,7.70
2018-07-21T10:32:11.717Z,7.63
2018-07-21T10:34:39.904Z,8.10
2018-07-21T10:37:08.067Z,8.70
2018-07-21T10:39:36.331Z,8.53
2018-07-21T10:42:04.491Z,7.93
2018-07-21T10:44:32.728Z,7.10
2018-07-21T10:47:00.839Z,8.00
2018-07-21T10:49:29.028Z,7.77
2018-07-21T10:51:57.222Z,8.20
2018-07-21T10:54:25.536Z,8.20
2018-07-21T10:56:53.780Z,8.23
2018-07-21T10:59:22.191Z,7.87
2018-07-21T11:01:50.346Z,8.70
2018-07-21T11:04:18.595Z,8.50
2018-07-21T11:06:46.780Z,8.13
2018-07-21T11:09:14.990Z,7.10
2018-07-21T11:11:43.168Z,8.27
2018-07-21T11:14:11.351Z,8.30
2018-07-21T11:16:39.531Z,9.17
2018-07-21T11:19:07.725Z,7.90
2018-07-21T11:21:35.948Z,8.97
2018-07-21T11:24:04.138Z,8.80
2018-07-21T11:26:32.424Z,9.27
2018-07-21T11:29:00.723Z,9.97
2018-07-21T11:31:28.930Z,10.37
2018-07-21T11:33:57.152Z,10.43
2018-07-21T11:36:25.605Z,10.77
2018-07-21T11:38:53.862Z,11.10
2018-07-21T11:41:22.056Z,9.77
2018-07-21T11:43:50.226Z,10.53
2018-07-21T11:46:18.419Z,10.47
2018-07-21T11:48:46.712Z,10.90
2018-07-21T11:51:15.053Z,10.30
2018-07-21T11:53:43.275Z,9.03
2018-07-21T11:56:11.504Z,9.03
2018-07-21T11:58:39.933Z,9.70
2018-07-21T12:01:08.367Z,9.40
2018-07-21T12:03:36.635Z,9.23
2018-07-21T12:06:05.514Z,8.97
2018-07-21T12:08:33.704Z,7.83
2018-07-21T12:11:01.866Z,7.97
2018-07-21T12:13:30.153Z,7.73
2018-07-21T12:15:58.284Z,8.43
2018-07-21T12:18:26.459Z,8.73
2018-07-21T12:20:54.619Z,8.10
2018-07-21T12:23:22.776Z,7.77
2018-07-21T12:25:50.983Z,8.30
2018-07-21T12:28:19.164Z,7.27
2018-07-21T12:30:47.359Z,7.97
2018-07-21T12:33:15.659Z,7.77
2018-07-21T12:35:43.833Z,6.97
2018-07-21T12:38:12.086Z,7.23
2018-07-21T12:40:40.240Z,7.75
2018-07-21T12:43:08.638Z,7.20
2018-07-21T12:45:36.813Z,7.00
2018-07-21T12:48:05.009Z,7.03
2018-07-21T12:50:33.257Z,7.17
2018-07-21T12:53:01.578Z,7.40
2018-07-21T12:55:29.796Z,6.43
2018-07-21T12:57:57.972Z,6.63
2018-07-21T13:00:26.118Z,6.50
2018-07-21T13:02:54.419Z,6.43
2018-07-21T13:05:22.626Z,6.63
2018-07-21T13:07:50.784Z,6.23
2018-07-21T13:10:18.987Z,5.63
2018-07-21T13:12:47.152Z,5.23
2018-07-21T13:15:15.337Z,5.03
2018-07-21T13:17:43.522Z,5.37
2018-07-21T13:20:11.687Z,5.13
2018-07-21T13:22:39.857Z,5.00
2018-07-21T13:25:08.024Z,4.77
2018-07-21T13:27:36.227Z,5.10
2018-07-21T13:30:05.615Z,5.30
2018-07-21T13:32:33.817Z,5.83
2018-07-21T13:35:01.980Z,6.10
2018-07-21T13:37:30.147Z,6.37
2018-07-21T13:39:58.374Z,7.10
2018-07-21T13:42:26.573Z,6.23
2018-07-21T13:44:54.780Z,6.37
2018-07-21T13:47:22.981Z,6.30
2018-07-21T13:49:51.160Z,6.20
2018-07-21T13:52:19.412Z,7.60
2018-07-21T13:54:47.642Z,7.93
2018-07-21T13:57:15.842Z,6.60
2018-07-21T13:59:44.007Z,7.47
2018-07-21T14:02:12.248Z,6.93
2018-07-21T14:04:40.481Z,6.50
2018-07-21T14:07:08.635Z,6.73
2018-07-21T14:09:36.817Z,7.37
2018-07-21T14:12:05.041Z,6.57
2018-07-21T14:14:33.202Z,6.53
2018-07-21T14:17:01.407Z,8.57
2018-07-21T14:19:32.950Z,10.27
2018-07-21T14:22:01.210Z,7.73
2018-07-21T14:24:29.387Z,6.97
2018-07-21T14:26:57.571Z,6.73
2018-07-21T14:29:25.727Z,6.73
2018-07-21T14:31:54.111Z,6.60
2018-07-21T14:34:22.267Z,6.57
2018-07-21T14:36:50.432Z,5.97
2018-07-21T14:39:18.621Z,6.30
2018-07-21T14:41:46.809Z,6.23
2018-07-21T14:44:14.947Z,6.80
2018-07-21T14:46:43.113Z,6.37
2018-07-21T14:49:11.304Z,6.57
2018-07-21T14:51:39.493Z,5.80
2018-07-21T14:54:07.680Z,6.30
2018-07-21T14:56:35.855Z,6.17
2018-07-21T14:59:04.074Z,7.23
2018-07-21T15:01:32.253Z,6.60
2018-07-21T15:04:00.400Z,6.03
2018-07-21T15:06:28.547Z,7.47
2018-07-21T15:08:56.703Z,6.77
2018-07-21T15:11:24.930Z,7.50
2018-07-21T15:13:53.123Z,7.83
2018-07-21T15:16:21.283Z,7.47
2018-07-21T15:18:49.453Z,7.57
2018-07-21T15:21:17.602Z,7.43
2018-07-21T15:23:45.766Z,8.17
2018-07-21T15:26:14.204Z,7.33
2018-07-21T15:28:42.355Z,7.47
2018-07-21T15:31:10.520Z,7.57
2018-07-21T15:33:38.696Z,7.33
2018-07-21T15:36:06.855Z,7.63
2018-07-21T15:38:35.134Z,7.83
2018-07-21T15:41:03.289Z,6.70
2018-07-21T15:43:31.452Z,7.70
2018-07-21T15:45:59.619Z,6.07
2018-07-21T15:48:27.835Z,6.60
2018-07-21T15:50:56.000Z,5.70
2018-07-21T15:53:24.177Z,5.70
2018-07-21T15:55:52.366Z,5.83
2018-07-21T15:58:20.505Z,5.47
2018-07-21T16:00:48.680Z,5.67
2018-07-21T16:03:16.844Z,6.67
2018-07-21T16:05:45.075Z,7.43
2018-07-21T16:08:13.564Z,8.60
2018-07-21T16:10:41.730Z,5.90
2018-07-21T16:13:09.940Z,6.37
2018-07-21T16:15:38.123Z,6.47
2018-07-21T16:18:06.301Z,6.60
2018-07-21T16:20:34.453Z,6.50
2018-07-21T16:23:02.781Z,6.43
2018-07-21T16:25:30.931Z,5.67
2018-07-21T16:27:59.255Z,6.20
2018-07-21T16:30:27.352Z,5.80
2018-07-21T16:32:55.601Z,5.70
2018-07-21T16:35:23.984Z,6.40
2018-07-21T16:37:52.169Z,6.50
2018-07-21T16:40:20.427Z,5.60
2018-07-21T16:42:48.555Z,4.97
2018-07-21T16:45:16.729Z,5.63
2018-07-21T16:47:45.143Z,5.50
2018-07-21T16:50:13.762Z,6.47
2018-07-21T16:52:41.990Z,4.90
2018-07-21T16:55:10.132Z,5.97
2018-07-21T16:57:38.333Z,7.47
2018-07-21T17:00:06.540Z,5.63
2018-07-21T17:02:34.736Z,5.30
2018-07-21T17:05:02.977Z,5.27
2018-07-21T17:07:31.135Z,5.50
2018-07-21T17:09:59.305Z,5.20
2018-07-21T17:12:27.464Z,5.00
2018-07-21T17:14:55.628Z,5.30
2018-07-21T17:17:23.863Z,5.40
2018-07-21T17:19:52.125Z,5.60
2018-07-21T17:22:20.323Z,4.93
2018-07-21T17:24:48.544Z,5.57
2018-07-21T17:27:16.756Z,6.47
2018-07-21T17:29:44.917Z,5.27
2018-07-21T17:32:13.527Z,6.00
2018-07-21T17:34:41.800Z,5.23
2018-07-21T17:37:10.006Z,5.77
2018-07-21T17:39:38.390Z,5.43
2018-07-21T17:42:06.573Z,4.77
2018-07-21T17:44:34.729Z,5.07
2018-07-21T17:47:02.899Z,5.63
2018-07-21T17:49:31.043Z,5.30
2018-07-21T17:51:59.220Z,5.30
2018-07-21T17:54:27.676Z,5.43
2018-07-21T17:56:55.952Z,6.43
2018-07-21T17:59:24.113Z,5.77
2018-07-21T18:01:53.340Z,5.30
2018-07-21T18:04:21.506Z,5.83
2018-07-21T18:06:49.672Z,6.03
2018-07-21T18:09:17.830Z,6.70
2018-07-21T18:11:46.370Z,8.40
2018-07-21T18:14:14.686Z,5.97
2018-07-21T18:16:42.819Z,5.80
2018-07-21T18:19:11.048Z,5.80
2018-07-21T18:21:39.300Z,7.10
2018-07-21T18:24:07.520Z,7.80
2018-07-21T18:26:35.760Z,7.23
2018-07-21T18:29:04.044Z,6.03
2018-07-21T18:31:32.225Z,8.03
2018-07-21T18:34:00.386Z,6.00
2018-07-21T18:36:28.577Z,5.50
2018-07-21T18:38:56.728Z,6.10
2018-07-21T18:41:24.906Z,5.40
2018-07-21T18:43:53.087Z,6.00
2018-07-21T18:46:21.318Z,6.43
2018-07-21T18:48:49.566Z,6.67
2018-07-21T18:51:17.726Z,6.30
2018-07-21T18:53:45.879Z,6.77
2018-07-21T18:56:14.042Z,7.07
2018-07-21T18:58:42.469Z,7.83
2018-07-21T19:01:10.630Z,8.63
2018-07-21T19:03:38.838Z,7.67
2018-07-21T19:06:07.115Z,9.20
2018-07-21T19:08:40.528Z,10.83
2018-07-21T19:11:08.683Z,8.50
2018-07-21T19:13:36.896Z,8.90
2018-07-21T19:16:10.530Z,8.90
2018-07-21T19:18:38.709Z,9.03
2018-07-21T19:21:12.337Z,9.00
2018-07-21T19:23:40.485Z,8.50
2018-07-21T19:26:14.168Z,7.73
2018-07-21T19:28:42.331Z,8.70
2018-07-21T19:31:10.493Z,7.90
2018-07-21T19:33:38.634Z,7.93
2018-07-21T19:36:06.810Z,9.30
2018-07-21T19:38:35.019Z,8.83
2018-07-21T19:41:08.487Z,8.63
2018-07-21T19:43:36.994Z,8.60
2018-07-21T19:46:05.447Z,9.53
2018-07-21T19:48:33.743Z,7.80
2018-07-21T19:51:01.939Z,9.67
2018-07-21T19:53:30.290Z,7.77
2018-07-21T19:55:58.454Z,8.10
2018-07-21T19:58:26.637Z,8.33
2018-07-21T20:00:54.881Z,7.60
2018-07-21T20:03:23.053Z,8.87
2018-07-21T20:05:51.245Z,7.40
2018-07-21T20:08:19.467Z,7.00
2018-07-21T20:10:47.763Z,7.47
2018-07-21T20:13:15.983Z,6.80
2018-07-21T20:15:44.136Z,7.30
2018-07-21T20:18:12.342Z,7.70
2018-07-21T20:20:40.512Z,6.57
2018-07-21T20:23:08.668Z,6.60
2018-07-21T20:25:36.963Z,7.00
2018-07-21T20:28:05.202Z,7.70
2018-07-21T20:30:33.474Z,7.23
2018-07-21T20:33:01.755Z,10.57
2018-07-21T20:35:30.067Z,8.67
2018-07-21T20:37:58.604Z,6.90
2018-07-21T20:40:26.843Z,7.10
2018-07-21T20:42:55.134Z,7.90
2018-07-21T20:45:23.284Z,7.10
2018-07-21T20:47:51.547Z,7.20
2018-07-21T20:50:19.743Z,7.17
2018-07-21T20:52:47.912Z,8.27
2018-07-21T20:55:16.130Z,7.70
2018-07-21T20:57:44.455Z,9.23
2018-07-21T21:00:12.694Z,8.30
2018-07-21T21:02:40.832Z,13.10
2018-07-21T21:05:09.212Z,10.57
2018-07-21T21:07:37.372Z,8.67
2018-07-21T21:10:05.870Z,10.33
2018-07-21T21:12:34.199Z,7.83
2018-07-21T21:15:02.320Z,8.43
2018-07-21T21:17:30.461Z,8.47
2018-07-21T21:19:58.627Z,9.63
2018-07-21T21:22:26.844Z,7.50
2018-07-21T21:24:55.163Z,7.77
2018-07-21T21:27:23.354Z,7.47
2018-07-21T21:29:51.528Z,8.90
2018-07-21T21:32:19.702Z,9.20
2018-07-21T21:34:47.859Z,8.87
2018-07-21T21:37:16.031Z,8.43
2018-07-21T21:39:44.188Z,8.50
2018-07-21T21:42:12.414Z,8.23
2018-07-21T21:44:40.557Z,8.73
2018-07-21T21:47:08.889Z,8.53
2018-07-21T21:49:37.081Z,12.03
2018-07-21T21:52:05.327Z,10.03
2018-07-21T21:54:33.530Z,9.90
2018-07-21T21:57:01.751Z,8.17
2018-07-21T21:59:29.915Z,10.67
2018-07-21T22:01:58.143Z,8.43
2018-07-21T22:04:26.566Z,8.60
2018-07-21T22:06:54.751Z,9.97
2018-07-21T22:09:22.918Z,9.20
2018-07-21T22:11:51.080Z,10.10
2018-07-21T22:14:19.290Z,9.10
2018-07-21T22:16:47.435Z,9.93
2018-07-21T22:19:15.601Z,10.13
2018-07-21T22:21:43.762Z,10.27
2018-07-21T22:24:11.950Z,9.07
2018-07-21T22:26:40.095Z,10.37
2018-07-21T22:29:08.295Z,9.20
2018-07-21T22:31:36.431Z,10.63
2018-07-21T22:34:04.612Z,10.87
2018-07-21T22:36:32.780Z,10.37
2018-07-21T22:39:00.968Z,10.07
2018-07-21T22:41:29.132Z,11.40
2018-07-21T22:43:57.286Z,10.60
2018-07-21T22:46:25.484Z,10.97
2018-07-21T22:48:53.637Z,9.93
2018-07-21T22:51:21.976Z,11.57
2018-07-21T22:53:50.224Z,10.50
2018-07-21T22:56:18.388Z,10.33
2018-07-21T22:58:46.576Z,10.87
2018-07-21T23:01:14.833Z,10.00
2018-07-21T23:03:42.943Z,10.83
2018-07-21T23:06:11.327Z,12.63
2018-07-21T23:08:39.519Z,9.33
2018-07-21T23:11:07.703Z,11.13
2018-07-21T23:13:36.224Z,11.67
2018-07-21T23:16:04.446Z,10.93
2018-07-21T23:18:32.600Z,11.63
2018-07-21T23:21:00.754Z,11.30
2018-07-21T23:23:28.918Z,11.63
2018-07-21T23:25:57.103Z,11.20
2018-07-21T23:28:25.277Z,12.90
2018-07-21T23:30:53.439Z,10.97
2018-07-21T23:33:21.752Z,11.53
2018-07-21T23:35:49.930Z,11.50
2018-07-21T23:38:18.103Z,14.67
2018-07-21T23:40:46.276Z,12.13
2018-07-21T23:43:14.455Z,12.93
2018-07-21T23:45:42.620Z,11.07
2018-07-21T23:48:10.808Z,11.57
2018-07-21T23:50:38.987Z,10.50
2018-07-21T23:53:07.146Z,12.63
2018-07-21T23:55:35.327Z,12.97
2018-07-21T23:58:03.591Z,13.17
